Dubrovnik, Hrvatska

01:35 PM CEST on Rujan 02, 2014 (GMT +0200)
Cilipi | Change Station
CLOSE
Current Station
Zračna luka
Location: Dubrovnik,
Visina: 541 ft
Nearby Weather Stations

Elev 541 ft 42.56 °N, 18.27 °E | Updated 5 minutes ago

Partly Cloudy
Djelomična naoblaka
75 °F
Feels Like 75 °F
S
8
Vjetar Varijabla smjera vjetra Vjetar from Zapad

Danas
High -- | Low -- °F
--% Chance of Precip.
Jučer
High -- | Low -- °F
Precip. -- u
6:12 AM 7:19 PM
Prva četvrt, 50% visible
Pritisak 29.65 u
Vidljivost 6.2 milja
Oblaci Few 2700 ft
Točka rose 66 °F
Vlažnost 73%
Kiša 0.00 u
Visina snijega Not available.
UV 7 od 12
Pollen Not available.
Kvalitet zraka Not available.
Flu Activity Not available.
METAR LDDU 021130Z 28007KT 230V330 9999 FEW027 24/19 Q1004 NOSIG

More Conditions Fewer Conditions

Pritisak 29.65 u
Vidljivost 6.2 milja
Oblaci Few 2700 ft
Točka rose 66 °F
Vlažnost 73%
Kiša 0.00 u
Visina snijega Not available.
UV 7 od 12
Pollen Not available.
Kvalitet zraka Not available.
Flu Activity Not available.
METAR LDDU 021130Z 28007KT 230V330 9999 FEW027 24/19 Q1004 NOSIG

More Conditions Fewer Conditions

10-Day Weather Forecast

Almanac

Astronomija

Sep. 02, 2014 Izlazak Zalazak
Trenutno vrijeme 6:12 AM CEST 7:19 PM CEST
Civilni sumrak 5:43 AM CEST 7:48 PM CEST
Nautički sumrak 5:09 AM CEST 8:23 PM CEST
Astronomski sumrak 4:32 AM CEST 8:59 PM CEST
Moon 1:48 PM CEST 11:48 PM CEST
Duljina trajanja vidljive svjetlosti 14h 05m
Duljina dana
13h 07m
Tomorrow will be 2m 47s shorter.
Prva četvrt, 50% of the Moon is Illuminated
Danas
Prva četvrt
Sep 8
Pun mjesec
Sep 15
Zadnja četvrt
Sep 24
New
Oct 1
Prva četvrtina

Yesterday's Extremes

Country Highs Country Lows

Community

WunderPhotos

Upload Photos

1,749,621 photos uploaded!

WunderBlogs® & News

By Dr. Jeff Masters
Director of Meteorology, Weather Underground
By Kari Strenfel
Meteorologist, Weather Underground
By Christopher C. Burt
Weather Historian, Weather Underground
September 2, 2014
September 2, 2014
September 2, 2014

Nearby

Kvalitet zraka

Not available.

Visina snijega

Not available.

Earthquake Activity

Grad Distance Mag. Time & Date
No recent earthquake activity has been reported nearby.
Minimum magnitude displayed is 2.5.

Coastal Water Temperatures

Mjesto Temperatura
No Stations Reporting

Nearby Weather Stations